Nearby METAR Reports

 

YMEN - Melbourne/Essend, Australia
Distance from station: WNW 96km
Updated: 19/11/2018 10:00
Clear
Clear
 Wind from N
Wind: N 35 km/h
Temperature: 25°C
Dew Point: 9°C
Humidity: 36%
Barometer: 1016 hPa
Clouds: Clear
Visibility: 10 km
2018/11/18 23:00 YMEN 182300Z AUTO 36019KT 9999 // NCD 25/09 Q1016
YMML - Melbourne Intl A, Australia
Distance from station: WNW 106km
Updated: 19/11/2018 10:00
Clear
Clear
 Wind from N
Wind: N 35 km/h
Temperature: 23°C
Dew Point: 7°C
Humidity: 36%
Barometer: 1016 hPa
Summary: Clear
Visibility: greater than 10 km
2018/11/18 23:00 YMML 182300Z 01019KT CAVOK 23/07 Q1016
YMAV - Avalon Airport, Australia
Distance from station: W 121km
Updated: 19/11/2018 10:00
Clear
Clear
 Wind from N
Wind: N 30 km/h
Temperature: 27°C
Dew Point: 10°C
Humidity: 34%
Barometer: 1015 hPa
Clouds: Clear
Visibility: 10 km
2018/11/18 23:00 YMAV 182300Z AUTO 01016KT 9999 // NCD 27/10 Q1015
 
YWGT - Wangaratta Arp, Australia
Distance from station: N 196km
Updated: 19/11/2018 10:00
Clear
Clear
 Wind from N
Wind: N 24 km/h
Temperature: 23°C
Dew Point: 6°C
Humidity: 33%
Barometer: 1018 hPa
Clouds: Clear
2018/11/18 23:00 YWGT 182300Z AUTO 01013KT //// // NCD 23/06 Q1018
YMAY - Albury Airport, Australia
Distance from station: NNE 250km
Updated: 19/11/2018 10:00
Clear
Clear
 Wind from ENE
Wind: ENE 17 km/h
Temperature: 22°C
Dew Point: 8°C
Humidity: 41%
Barometer: 1019 hPa
Clouds: Clear
Visibility: 10 km
2018/11/18 23:00 YMAY 182300Z AUTO 06009KT 360V070 9999 // NCD 22/08 Q1019
YCOM - Cooma Snowy Mtns, Australia
Distance from station: NE 343km
Updated: 19/11/2018 09:00
Clear
Clear
 Wind from NNE
Wind: NNE 24 km/h
Temperature: 13°C
Dew Point: 6°C
Humidity: 63%
Barometer: 1022 hPa
Clouds: Clear
Visibility: 10 km
2018/11/18 22:00 YCOM 182200Z AUTO 02013KT 9999 // NCD 13/06 Q1022
 
YSWG - Wagga Wagga(Cv/M, Australia
Distance from station: NNE 364km
Updated: 19/11/2018 10:00
Clear
Clear
 Wind from ENE
Wind: ENE 24 km/h
Temperature: 21°C
Dew Point: 8°C
Humidity: 43%
Barometer: 1019 hPa
Summary: Clear
Visibility: greater than 10 km
2018/11/18 23:00 YSWG 182300Z 06013KT CAVOK 21/08 Q1019
YMER - Merimbula Arpt, Australia
Distance from station: ENE 382km
Updated: 19/11/2018 10:00
Clear
Clear
 Wind from ENE
Wind: ENE 20 km/h
Temperature: 21°C
Dew Point: 11°C
Humidity: 53%
Barometer: 1021 hPa
Clouds: Clear
Visibility: 10 km
2018/11/18 23:00 YMER 182300Z AUTO 06011KT 9999 // NCD 21/11 Q1021
YNAR - Narrandera, Australia
Distance from station: N 388km
Updated: 19/11/2018 09:00

 Wind from ENE
Wind: ENE 26 km/h
Temperature: 20°C
Dew Point: 8°C
Humidity: 46%
Barometer: 1019 hPa
2018/11/18 22:00 YNAR 182200Z AUTO 06014KT //// // ////// 20/08 Q1019
 
YMLT - Launceston Airpo, Australia
Distance from station: SSE 392km
Updated: 19/11/2018 10:00
Mostly cloudy
Mostly cloudy
 Wind from NW
Wind: NW 7 km/h
Temperature: 17°C
Dew Point: 9°C
Humidity: 59%
Barometer: 1022 hPa
Clouds: Mostly cloudy
Visibility: 10 km
Cloud details: Mostly cloudy 1158 m
2018/11/18 23:00 YMLT 182300Z AUTO 31004KT 9999 // BKN038 17/09 Q1022
YGTH - Griffith Arpt, Australia
Distance from station: N 434km
Updated: 19/11/2018 09:00
Clear
Clear
 Wind from ENE
Wind: ENE 28 km/h
Temperature: 22°C
Dew Point: 10°C
Humidity: 47%
Barometer: 1017 hPa
Clouds: Clear
Visibility: 10 km
2018/11/18 22:00 YGTH 182200Z AUTO 06015KT 9999 // NCD 22/10 Q1017
YSCB - Canberra (civ/Mi, Australia
Distance from station: NE 434km
Updated: 19/11/2018 10:00
Few Clouds
Few Clouds
 Wind from ENE
Wind: ENE 13 km/h
Temperature: 17°C
Dew Point: 5°C
Humidity: 45%
Barometer: 1022 hPa
Clouds: Few Clouds
Visibility: 10 km
Cloud details: Few Clouds 1372 m
2018/11/18 23:00 YSCB 182300Z 07007KT 360V100 9999 FEW045 17/05 Q1022 FM0000 04010KT CAVOK
 
YMTG - Mount Gambier, Australia
Distance from station: W 447km
Updated: 19/11/2018 09:00
Clear
Clear
 Wind from NNE
Wind: NNE 30 km/h
Temperature: 22°C
Dew Point: 5°C
Humidity: 33%
Barometer: 1012 hPa
Clouds: Clear
Visibility: 10 km
2018/11/18 22:00 YMTG 182200Z AUTO 03016KT 9999 // NCD 22/05 Q1012
YMHB - Hobart/Tasmania, Australia
Distance from station: SSE 538km
Updated: 19/11/2018 10:00
Few Clouds
Few Clouds
 Wind from N
Wind: N 20 km/h
Temperature: 19°C
Dew Point: 7°C
Humidity: 46%
Barometer: 1020 hPa
Clouds: Few Clouds
Visibility: 10 km
Cloud details: Few Clouds 1067 m
2018/11/18 23:00 YMHB 182300Z 36011KT 9999 FEW035 19/07 Q1020
YSNW - Nowra (aus-Navy), Australia
Distance from station: NE 547km
Updated: 19/11/2018 09:00
Partly cloudy
Partly cloudy
 Wind from E
Wind: E 6 km/h
Temperature: 19°C
Dew Point: 11°C
Humidity: 60%
Barometer: 1022 hPa
Clouds: Partly cloudy
Visibility: 10 km
Cloud details: Partly cloudy 975 m
2018/11/18 22:00 YSNW 182200Z 09003KT 9999 SCT032 19/11 Q1022 NOSIG
 
YMIA - Mildura Arpt, Australia
Distance from station: NW 551km
Updated: 19/11/2018 10:00
Clear
Clear
 Wind from NNE
Wind: NNE 24 km/h
Temperature: 29°C
Dew Point: 6°C
Humidity: 23%
Barometer: 1012 hPa
Clouds: Clear
Visibility: 10 km
2018/11/18 23:00 YMIA 182300Z AUTO 03013KT 9999 // NCD 29/06 Q1012
YSSY - Sydney Intl Airp, Australia
Distance from station: NE 667km
Updated: 19/11/2018 10:00
Mostly cloudy
Mostly cloudy
 Wind from SSE
Wind: SSE 11 km/h
Temperature: 20°C
Dew Point: 12°C
Humidity: 60%
Barometer: 1022 hPa
Clouds: Mostly cloudy
Visibility: 10 km
Cloud details: Few Clouds 914 m
Mostly cloudy 1372 m
2018/11/18 23:00 YSSY 182300Z 16006KT 9999 FEW030 BKN045 20/12 Q1022 NOSIG
YSRI - Richmond (aus-Af, Australia
Distance from station: NE 671km
Updated: 19/11/2018 10:00
Clear
Clear
 Wind from ESE
Wind: ESE 6 km/h
Temperature: 19°C
Dew Point: 12°C
Humidity: 64%
Barometer: 1022 hPa
Clouds: Clear
Visibility: 10 km
2018/11/18 23:00 YSRI 182300Z AUTO 11003KT 9999 // NCD 19/12 Q1022
 
YSDU - Dubbo, Australia
Distance from station: NNE 704km
Updated: 19/11/2018 10:00
Overcast
Overcast
 Wind from ENE
Wind: ENE 19 km/h
Temperature: 21°C
Dew Point: 11°C
Humidity: 53%
Barometer: 1020 hPa
Clouds: Overcast
Visibility: 10 km
Cloud details: Mostly cloudy 2316 m
Overcast 3353 m
2018/11/18 23:00 YSDU 182300Z AUTO 06010KT 9999 // BKN076 OVC110 21/11 Q1020
YMDG - Mudgee Arpt, Australia
Distance from station: NNE 708km
Updated: 19/11/2018 10:00
Partly cloudy
Partly cloudy
 Wind from NE
Wind: NE 13 km/h
Temperature: 20°C
Dew Point: 9°C
Humidity: 49%
Barometer: 1021 hPa
Clouds: Partly cloudy
Visibility: 10 km
Cloud details: Partly cloudy 3018 m
2018/11/18 23:00 YMDG 182300Z AUTO 05007KT 010V090 9999 // SCT099 20/09 Q1021